createdAt,value
2017-03-22T00:01:00.902Z,0
2017-03-22T00:02:02.230Z,0
2017-03-22T00:03:03.522Z,0
2017-03-22T00:04:04.761Z,0
2017-03-22T00:05:06.009Z,0
2017-03-22T00:06:07.388Z,0
2017-03-22T00:07:08.646Z,0
2017-03-22T00:08:09.879Z,0
2017-03-22T00:09:11.109Z,0
2017-03-22T00:10:12.358Z,0
2017-03-22T00:11:13.627Z,0
2017-03-22T00:12:14.921Z,0
2017-03-22T00:13:16.221Z,0
2017-03-22T00:14:17.464Z,0
2017-03-22T00:15:18.705Z,0
2017-03-22T00:16:19.934Z,0
2017-03-22T00:17:21.306Z,0
2017-03-22T00:18:22.556Z,0
2017-03-22T00:19:23.789Z,0
2017-03-22T00:20:25.049Z,0
2017-03-22T00:21:26.284Z,0
2017-03-22T00:22:27.520Z,0
2017-03-22T00:23:28.758Z,0
2017-03-22T00:24:30.013Z,0
2017-03-22T00:25:31.257Z,0
2017-03-22T00:26:32.544Z,0
2017-03-22T00:27:33.775Z,0
2017-03-22T00:28:35.044Z,0
2017-03-22T00:29:36.281Z,0
2017-03-22T00:30:37.536Z,0
2017-03-22T00:31:38.898Z,0
2017-03-22T00:32:40.166Z,0
2017-03-22T00:33:41.399Z,0
2017-03-22T00:34:42.625Z,0
2017-03-22T00:35:43.894Z,0
2017-03-22T00:36:45.257Z,0
2017-03-22T00:37:46.415Z,0
2017-03-22T00:38:47.666Z,0
2017-03-22T00:39:48.980Z,0
2017-03-22T00:40:50.153Z,0
2017-03-22T00:41:51.390Z,0
2017-03-22T00:42:52.618Z,0
2017-03-22T00:43:53.856Z,0
2017-03-22T00:44:55.085Z,0
2017-03-22T00:45:56.330Z,0
2017-03-22T00:46:57.597Z,0
2017-03-22T00:47:58.846Z,0
2017-03-22T00:49:00.053Z,0
2017-03-22T00:50:01.396Z,0
2017-03-22T00:51:02.636Z,0
2017-03-22T00:52:03.885Z,0
2017-03-22T00:53:05.125Z,0
2017-03-22T00:54:06.354Z,0
2017-03-22T00:55:07.634Z,0
2017-03-22T00:56:08.884Z,0
2017-03-22T00:57:10.130Z,0
2017-03-22T00:58:11.333Z,0
2017-03-22T00:59:12.666Z,0
2017-03-22T01:00:13.904Z,0
2017-03-22T01:01:15.157Z,0
2017-03-22T01:02:16.389Z,0
2017-03-22T01:03:17.617Z,0
2017-03-22T01:04:18.871Z,0
2017-03-22T01:05:20.186Z,0
2017-03-22T01:06:21.511Z,0
2017-03-22T01:07:22.738Z,0
2017-03-22T01:08:23.982Z,0
2017-03-22T01:09:25.265Z,0
2017-03-22T01:10:26.509Z,0
2017-03-22T01:11:27.742Z,0
2017-03-22T01:12:29.019Z,0
2017-03-22T01:13:30.256Z,0
2017-03-22T01:14:31.503Z,0
2017-03-22T01:15:32.743Z,0
2017-03-22T01:16:33.981Z,0
2017-03-22T01:17:35.216Z,0
2017-03-22T01:18:36.459Z,0
2017-03-22T01:19:37.751Z,0
2017-03-22T01:20:39.010Z,0
2017-03-22T01:21:40.219Z,0
2017-03-22T01:22:41.457Z,0
2017-03-22T01:23:42.703Z,0
2017-03-22T01:24:43.954Z,0
2017-03-22T01:25:45.287Z,0
2017-03-22T01:26:46.504Z,0
2017-03-22T01:27:47.794Z,0
2017-03-22T01:28:49.106Z,0
2017-03-22T01:29:50.307Z,0
2017-03-22T01:30:51.552Z,0
2017-03-22T01:31:52.889Z,0
2017-03-22T01:32:54.129Z,0
2017-03-22T01:33:55.368Z,0
2017-03-22T01:34:56.629Z,0
2017-03-22T01:35:57.877Z,0
2017-03-22T01:36:59.136Z,0
2017-03-22T01:38:00.476Z,0
2017-03-22T01:39:01.750Z,0
2017-03-22T01:40:02.985Z,0
2017-03-22T01:41:04.220Z,0
2017-03-22T01:42:05.527Z,0
2017-03-22T01:43:06.774Z,0
2017-03-22T01:44:07.996Z,0
2017-03-22T01:45:09.244Z,0
2017-03-22T01:46:10.471Z,0
2017-03-22T01:47:11.711Z,0
2017-03-22T01:48:12.955Z,0
2017-03-22T01:49:14.170Z,0
2017-03-22T01:50:15.409Z,0
2017-03-22T01:51:16.648Z,0
2017-03-22T01:52:17.915Z,0
2017-03-22T01:53:19.151Z,0
2017-03-22T01:54:20.415Z,0
2017-03-22T01:55:21.699Z,0
2017-03-22T01:56:22.924Z,0
2017-03-22T01:57:24.151Z,0
2017-03-22T01:58:25.386Z,0
2017-03-22T01:59:26.612Z,0
2017-03-22T02:00:27.838Z,0
2017-03-22T02:01:29.096Z,0
2017-03-22T02:02:30.374Z,0
2017-03-22T02:03:31.722Z,0
2017-03-22T02:04:32.971Z,0
2017-03-22T02:05:34.217Z,0
2017-03-22T02:06:35.490Z,0
2017-03-22T02:07:36.717Z,0
2017-03-22T02:08:37.962Z,0
2017-03-22T02:09:39.235Z,0
2017-03-22T02:10:40.493Z,0
2017-03-22T02:11:41.719Z,0
2017-03-22T02:12:42.988Z,0
2017-03-22T02:13:44.223Z,0
2017-03-22T02:14:45.526Z,0
2017-03-22T02:15:46.761Z,0
2017-03-22T02:16:48.010Z,0
2017-03-22T02:17:49.244Z,0
2017-03-22T02:18:50.474Z,0
2017-03-22T02:19:51.800Z,0
2017-03-22T02:20:53.052Z,0
2017-03-22T02:21:54.286Z,0
2017-03-22T02:22:55.517Z,0
2017-03-22T02:23:56.771Z,0
2017-03-22T02:24:58.011Z,0
2017-03-22T02:25:59.241Z,0
2017-03-22T02:27:00.478Z,0
2017-03-22T02:28:01.837Z,0
2017-03-22T02:29:03.346Z,0
2017-03-22T02:30:04.577Z,0
2017-03-22T02:31:05.848Z,0
2017-03-22T02:32:07.096Z,0
2017-03-22T02:33:08.326Z,0
2017-03-22T02:34:09.613Z,0
2017-03-22T02:35:10.877Z,0
2017-03-22T02:36:12.095Z,0
2017-03-22T02:37:13.324Z,0
2017-03-22T02:38:14.553Z,0
2017-03-22T02:39:15.780Z,0
2017-03-22T02:40:17.019Z,0
2017-03-22T02:41:18.251Z,0
2017-03-22T02:42:19.581Z,0
2017-03-22T02:43:20.814Z,0
2017-03-22T02:44:22.082Z,0
2017-03-22T02:45:23.286Z,0
2017-03-22T02:46:24.520Z,0
2017-03-22T02:47:25.791Z,0
2017-03-22T02:48:27.073Z,0
2017-03-22T02:49:28.421Z,0
2017-03-22T02:50:29.687Z,0
2017-03-22T02:51:30.907Z,0
2017-03-22T02:52:32.153Z,0
2017-03-22T02:53:33.372Z,0
2017-03-22T02:54:34.677Z,0
2017-03-22T02:55:36.030Z,0
2017-03-22T02:56:37.263Z,0
2017-03-22T02:57:38.497Z,0
2017-03-22T02:58:39.726Z,0
2017-03-22T02:59:40.985Z,0
2017-03-22T03:00:42.208Z,0
2017-03-22T03:01:43.443Z,0
2017-03-22T03:02:44.674Z,0
2017-03-22T03:03:45.998Z,0
2017-03-22T03:04:47.220Z,0
2017-03-22T03:05:48.449Z,0
2017-03-22T03:06:49.691Z,0
2017-03-22T03:07:50.974Z,0
2017-03-22T03:08:52.165Z,0
2017-03-22T03:09:53.449Z,0
2017-03-22T03:10:54.688Z,0
2017-03-22T03:11:55.936Z,0
2017-03-22T03:12:57.218Z,0
2017-03-22T03:13:58.433Z,0
2017-03-22T03:14:59.709Z,0
2017-03-22T03:16:00.924Z,0
2017-03-22T03:17:02.162Z,0
2017-03-22T03:18:03.404Z,0
2017-03-22T03:19:04.633Z,0
2017-03-22T03:20:05.862Z,0
2017-03-22T03:21:07.103Z,0
2017-03-22T03:22:08.391Z,0
2017-03-22T03:23:09.638Z,0
2017-03-22T03:24:10.847Z,0
2017-03-22T03:25:12.075Z,0
2017-03-22T03:26:13.336Z,0
2017-03-22T03:27:14.583Z,0
2017-03-22T03:28:15.902Z,0
2017-03-22T03:29:17.160Z,0
2017-03-22T03:30:18.400Z,0
2017-03-22T03:31:19.656Z,0
2017-03-22T03:32:20.868Z,0
2017-03-22T03:33:22.103Z,0
2017-03-22T03:34:23.321Z,0
2017-03-22T03:35:24.574Z,0
2017-03-22T03:36:25.819Z,0
2017-03-22T03:37:27.050Z,0
2017-03-22T03:38:28.272Z,0
2017-03-22T03:39:29.552Z,0
2017-03-22T03:40:30.779Z,0
2017-03-22T03:41:32.026Z,0
2017-03-22T03:42:33.258Z,0
2017-03-22T03:43:34.505Z,0
2017-03-22T03:44:35.730Z,0
2017-03-22T03:45:36.966Z,0
2017-03-22T03:46:38.199Z,0
2017-03-22T03:47:39.454Z,0
2017-03-22T03:48:40.723Z,0
2017-03-22T03:49:41.959Z,0
2017-03-22T03:50:43.205Z,0
2017-03-22T03:51:44.426Z,0
2017-03-22T03:52:45.674Z,0
2017-03-22T03:53:46.913Z,0
2017-03-22T03:54:48.155Z,0
2017-03-22T03:55:49.444Z,0
2017-03-22T03:56:50.679Z,0
2017-03-22T03:57:52.049Z,0
2017-03-22T03:58:53.272Z,0
2017-03-22T03:59:54.521Z,0
2017-03-22T04:00:55.775Z,0
2017-03-22T04:01:57.097Z,0
2017-03-22T04:02:58.336Z,0
2017-03-22T04:03:59.637Z,0
2017-03-22T04:05:00.902Z,0
2017-03-22T04:06:02.134Z,0
2017-03-22T04:07:03.394Z,0
2017-03-22T04:08:04.677Z,0
2017-03-22T04:09:05.901Z,0
2017-03-22T04:10:07.129Z,0
2017-03-22T04:11:08.361Z,0
2017-03-22T04:12:09.609Z,0
2017-03-22T04:13:10.824Z,0
2017-03-22T04:14:12.123Z,0
2017-03-22T04:15:13.339Z,0
2017-03-22T04:16:14.570Z,0
2017-03-22T04:17:15.824Z,0
2017-03-22T04:18:17.067Z,0
2017-03-22T04:19:18.387Z,0
2017-03-22T04:20:19.636Z,0
2017-03-22T04:21:20.920Z,0
2017-03-22T04:22:22.175Z,0
2017-03-22T04:23:23.414Z,0
2017-03-22T04:24:24.652Z,0
2017-03-22T04:25:25.888Z,0
2017-03-22T04:26:27.121Z,0
2017-03-22T04:27:28.410Z,0
2017-03-22T04:28:29.634Z,0
2017-03-22T04:29:30.878Z,0
2017-03-22T04:30:32.117Z,0
2017-03-22T04:31:33.372Z,0
2017-03-22T04:32:34.585Z,0
2017-03-22T04:33:35.850Z,0
2017-03-22T04:34:37.097Z,0
2017-03-22T04:35:38.338Z,0
2017-03-22T04:36:39.630Z,0
2017-03-22T04:37:40.873Z,0
2017-03-22T04:38:42.121Z,0
2017-03-22T04:39:43.368Z,0
2017-03-22T04:40:44.605Z,0
2017-03-22T04:41:45.864Z,0
2017-03-22T04:42:47.119Z,0
2017-03-22T04:43:48.323Z,0
2017-03-22T04:44:49.605Z,0
2017-03-22T04:45:50.837Z,0
2017-03-22T04:46:52.072Z,0
2017-03-22T04:47:53.310Z,0
2017-03-22T04:48:54.571Z,0
2017-03-22T04:49:55.846Z,0
2017-03-22T04:50:57.079Z,0
2017-03-22T04:51:58.317Z,0
2017-03-22T04:52:59.557Z,0
2017-03-22T04:54:00.887Z,0
2017-03-22T04:55:02.114Z,0
2017-03-22T04:56:03.348Z,0
2017-03-22T04:57:04.580Z,0
2017-03-22T04:58:05.808Z,0
2017-03-22T04:59:07.050Z,0
2017-03-22T05:00:08.285Z,0
2017-03-22T05:01:09.628Z,0
2017-03-22T05:02:10.879Z,0
2017-03-22T05:03:12.095Z,0
2017-03-22T05:04:13.328Z,0
2017-03-22T05:05:14.585Z,0
2017-03-22T05:06:15.801Z,0
2017-03-22T05:07:17.074Z,0
2017-03-22T05:08:18.303Z,0
2017-03-22T05:09:19.526Z,0
2017-03-22T05:10:20.774Z,0
2017-03-22T05:11:21.988Z,0
2017-03-22T05:12:23.307Z,0
2017-03-22T05:13:24.454Z,0
2017-03-22T05:14:25.691Z,0
2017-03-22T05:15:26.934Z,0
2017-03-22T05:16:28.168Z,0
2017-03-22T05:17:29.400Z,5
2017-03-22T05:18:30.657Z,5
2017-03-22T05:19:31.889Z,5
2017-03-22T05:20:33.107Z,5
2017-03-22T05:21:34.349Z,5
2017-03-22T05:22:35.723Z,5
2017-03-22T05:23:36.974Z,10
2017-03-22T05:24:38.219Z,10
2017-03-22T05:25:39.470Z,10
2017-03-22T05:26:40.766Z,10
2017-03-22T05:27:41.967Z,10
2017-03-22T05:28:43.184Z,15
2017-03-22T05:29:44.409Z,15
2017-03-22T05:30:45.676Z,15
2017-03-22T05:31:46.918Z,15
2017-03-22T05:32:48.225Z,20
2017-03-22T05:33:49.484Z,20
2017-03-22T05:34:50.725Z,20
2017-03-22T05:35:52.014Z,20
2017-03-22T05:36:53.249Z,25
2017-03-22T05:37:54.484Z,25
2017-03-22T05:38:55.757Z,25
2017-03-22T05:39:56.984Z,30
2017-03-22T05:40:58.212Z,30
2017-03-22T05:41:59.444Z,30
2017-03-22T05:43:00.670Z,35
2017-03-22T05:44:01.902Z,35
2017-03-22T05:45:03.470Z,35
2017-03-22T05:46:04.666Z,40
2017-03-22T05:47:05.909Z,40
2017-03-22T05:48:07.157Z,45
2017-03-22T05:49:08.428Z,45
2017-03-22T05:50:09.677Z,45
2017-03-22T05:51:11.245Z,50
2017-03-22T05:52:12.483Z,50
2017-03-22T05:53:13.734Z,55
2017-03-22T05:54:14.991Z,55
2017-03-22T05:55:16.198Z,60
2017-03-22T05:56:17.434Z,60
2017-03-22T05:57:18.692Z,65
2017-03-22T05:58:20.071Z,70
2017-03-22T05:59:21.370Z,70
2017-03-22T06:00:22.597Z,70
2017-03-22T06:01:23.943Z,75
2017-03-22T06:02:25.193Z,85
2017-03-22T06:03:26.424Z,85
2017-03-22T06:04:27.779Z,80
2017-03-22T06:05:29.004Z,85
2017-03-22T06:06:30.256Z,90
2017-03-22T06:07:31.501Z,100
2017-03-22T06:08:32.749Z,100
2017-03-22T06:09:33.998Z,115
2017-03-22T06:10:35.250Z,115
2017-03-22T06:11:36.629Z,120
2017-03-22T06:12:37.887Z,115
2017-03-22T06:13:39.172Z,125
2017-03-22T06:14:40.395Z,135
2017-03-22T06:15:41.733Z,165
2017-03-22T06:16:43.048Z,165
2017-03-22T06:17:44.442Z,160
2017-03-22T06:18:45.714Z,160
2017-03-22T06:19:46.963Z,155
2017-03-22T06:20:48.219Z,160
2017-03-22T06:21:49.544Z,155
2017-03-22T06:22:50.790Z,155
2017-03-22T06:23:52.020Z,155
2017-03-22T06:24:53.256Z,165
2017-03-22T06:25:54.485Z,175
2017-03-22T06:26:55.828Z,180
2017-03-22T06:27:57.057Z,185
2017-03-22T06:28:58.346Z,195
2017-03-22T06:29:59.706Z,195
2017-03-22T06:31:00.933Z,200
2017-03-22T06:32:02.165Z,210
2017-03-22T06:33:03.452Z,235
2017-03-22T06:34:04.631Z,225
2017-03-22T06:35:05.972Z,240
2017-03-22T06:36:07.253Z,265
2017-03-22T06:37:08.527Z,265
2017-03-22T06:38:09.739Z,310
2017-03-22T06:39:10.970Z,300
2017-03-22T06:40:12.257Z,325
2017-03-22T06:41:13.497Z,295
2017-03-22T06:42:14.737Z,350
2017-03-22T06:43:15.990Z,355
2017-03-22T06:44:17.218Z,330
2017-03-22T06:45:18.495Z,320
2017-03-22T06:46:19.774Z,320
2017-03-22T06:47:20.998Z,315
2017-03-22T06:48:22.325Z,310
2017-03-22T06:49:23.651Z,330
2017-03-22T06:50:24.914Z,355
2017-03-22T06:51:26.127Z,380
2017-03-22T06:52:27.377Z,425
2017-03-22T06:53:28.611Z,445
2017-03-22T06:54:29.957Z,455
2017-03-22T06:55:31.219Z,495
2017-03-22T06:56:32.484Z,465
2017-03-22T06:57:33.727Z,555
2017-03-22T06:58:35.035Z,505
2017-03-22T06:59:36.408Z,575
2017-03-22T07:00:37.740Z,670
2017-03-22T07:01:38.964Z,725
2017-03-22T07:02:40.210Z,660
2017-03-22T07:03:41.481Z,670
2017-03-22T07:04:42.715Z,735
2017-03-22T07:05:43.964Z,790
2017-03-22T07:06:45.263Z,785
2017-03-22T07:07:46.502Z,770
2017-03-22T07:08:47.738Z,670
2017-03-22T07:09:48.985Z,670
2017-03-22T07:10:50.231Z,670
2017-03-22T07:11:51.464Z,725
2017-03-22T07:12:52.704Z,660
2017-03-22T07:13:53.955Z,610
2017-03-22T07:14:55.202Z,680
2017-03-22T07:15:56.441Z,745
2017-03-22T07:16:57.686Z,810
2017-03-22T07:17:58.923Z,790
2017-03-22T07:19:00.267Z,845
2017-03-22T07:20:01.531Z,815
2017-03-22T07:21:02.791Z,855
2017-03-22T07:22:04.023Z,845
2017-03-22T07:23:05.299Z,890
2017-03-22T07:24:06.527Z,915
2017-03-22T07:25:07.806Z,900
2017-03-22T07:26:09.042Z,925
2017-03-22T07:27:10.329Z,980
2017-03-22T07:28:11.564Z,1005
2017-03-22T07:29:12.849Z,1005
2017-03-22T07:30:14.098Z,1000
2017-03-22T07:31:15.351Z,1000
2017-03-22T07:32:16.598Z,1005
2017-03-22T07:33:17.856Z,1010
2017-03-22T07:34:19.118Z,995
2017-03-22T07:35:20.386Z,990
2017-03-22T07:36:21.769Z,975
2017-03-22T07:37:22.987Z,1005
2017-03-22T07:38:24.233Z,990
2017-03-22T07:39:25.482Z,985
2017-03-22T07:40:26.722Z,990
2017-03-22T07:41:27.969Z,920
2017-03-22T07:42:29.230Z,940
2017-03-22T07:43:30.489Z,990
2017-03-22T07:44:31.745Z,955
2017-03-22T07:45:33.010Z,1030
2017-03-22T07:46:34.235Z,975
2017-03-22T07:47:35.512Z,985
2017-03-22T07:48:36.797Z,1020
2017-03-22T07:49:38.125Z,1040
2017-03-22T07:50:39.435Z,1020
2017-03-22T07:51:40.662Z,1060
2017-03-22T07:52:41.930Z,1060
2017-03-22T07:53:43.181Z,1095
2017-03-22T07:54:44.424Z,1120
2017-03-22T07:55:45.678Z,1130
2017-03-22T07:56:46.947Z,1145
2017-03-22T07:57:48.197Z,1160
2017-03-22T07:58:49.478Z,1175
2017-03-22T07:59:50.728Z,1185
2017-03-22T08:00:51.993Z,1155
2017-03-22T08:01:53.245Z,1175
2017-03-22T08:02:54.544Z,1185
2017-03-22T08:03:55.882Z,1155
2017-03-22T08:04:57.127Z,1110
2017-03-22T08:05:58.386Z,1085
2017-03-22T08:06:59.670Z,1050
2017-03-22T08:08:00.940Z,1020
2017-03-22T08:09:02.178Z,985
2017-03-22T08:10:03.450Z,960
2017-03-22T08:11:04.688Z,980
2017-03-22T08:12:05.943Z,960
2017-03-22T08:13:07.189Z,955
2017-03-22T08:14:08.434Z,945
2017-03-22T08:15:09.714Z,935
2017-03-22T08:16:10.961Z,930
2017-03-22T08:17:12.221Z,935
2017-03-22T08:18:13.508Z,935
2017-03-22T08:19:14.765Z,930
2017-03-22T08:20:16.020Z,930
2017-03-22T08:21:17.388Z,925
2017-03-22T08:22:18.722Z,920
2017-03-22T08:23:19.969Z,940
2017-03-22T08:24:21.220Z,940
2017-03-22T08:25:22.470Z,940
2017-03-22T08:26:23.773Z,930
2017-03-22T08:27:25.041Z,930
2017-03-22T08:28:26.352Z,920
2017-03-22T08:29:27.663Z,915
2017-03-22T08:30:28.913Z,925
2017-03-22T08:31:30.173Z,930
2017-03-22T08:32:31.441Z,930
2017-03-22T08:33:32.682Z,935
2017-03-22T08:34:33.948Z,940
2017-03-22T08:35:35.215Z,940
2017-03-22T08:36:36.459Z,950
2017-03-22T08:37:37.761Z,960
2017-03-22T08:38:39.024Z,965
2017-03-22T08:39:40.292Z,945
2017-03-22T08:40:41.550Z,945
2017-03-22T08:41:42.793Z,945
2017-03-22T08:42:44.145Z,940
2017-03-22T08:43:45.430Z,960
2017-03-22T08:44:46.706Z,970
2017-03-22T08:45:47.968Z,980
2017-03-22T08:46:49.253Z,995
2017-03-22T08:47:50.577Z,995
2017-03-22T08:48:51.826Z,1010
2017-03-22T08:49:53.081Z,1010
2017-03-22T08:50:54.456Z,1010
2017-03-22T08:51:55.754Z,1010
2017-03-22T08:52:57.014Z,1030
2017-03-22T08:53:58.261Z,1020
2017-03-22T08:54:59.543Z,1015
2017-03-22T08:56:00.826Z,1025
2017-03-22T08:57:02.095Z,1020
2017-03-22T08:58:03.383Z,1030
2017-03-22T08:59:04.618Z,1030
2017-03-22T09:00:06.009Z,1040
2017-03-22T09:01:07.312Z,1035
2017-03-22T09:02:08.540Z,1030
2017-03-22T09:03:09.828Z,1040
2017-03-22T09:04:11.078Z,1055
2017-03-22T09:05:12.366Z,1070
2017-03-22T09:06:13.587Z,1085
2017-03-22T09:07:14.887Z,1100
2017-03-22T09:08:16.077Z,1120
2017-03-22T09:09:17.336Z,1140
2017-03-22T09:10:18.581Z,1170
2017-03-22T09:11:19.859Z,1215
2017-03-22T09:12:21.100Z,1255
2017-03-22T09:13:22.359Z,1275
2017-03-22T09:14:23.638Z,1320
2017-03-22T09:15:25.010Z,1365
2017-03-22T09:16:26.253Z,1495
2017-03-22T09:17:27.506Z,1630
2017-03-22T09:18:28.753Z,1690
2017-03-22T09:19:30.017Z,1800
2017-03-22T09:20:31.337Z,1930
2017-03-22T09:21:32.594Z,1955
2017-03-22T09:22:33.839Z,2030
2017-03-22T09:23:35.090Z,2155
2017-03-22T09:24:36.343Z,2240
2017-03-22T09:25:37.696Z,2205
2017-03-22T09:26:38.949Z,2150
2017-03-22T09:27:40.298Z,2180
2017-03-22T09:28:41.608Z,2205
2017-03-22T09:29:42.853Z,2215
2017-03-22T09:30:44.165Z,2145
2017-03-22T09:31:45.520Z,2175
2017-03-22T09:32:46.772Z,2215
2017-03-22T09:33:48.044Z,2230
2017-03-22T09:34:49.306Z,2210
2017-03-22T09:35:50.564Z,2210
2017-03-22T09:36:51.819Z,2295
2017-03-22T09:37:53.062Z,2230
2017-03-22T09:38:54.341Z,2180
2017-03-22T09:39:55.580Z,2210
2017-03-22T09:40:56.839Z,2265
2017-03-22T09:41:58.113Z,2350
2017-03-22T09:42:59.384Z,2410
2017-03-22T09:44:00.628Z,2510
2017-03-22T09:45:01.898Z,2465
2017-03-22T09:46:03.164Z,2415
2017-03-22T09:47:04.416Z,2495
2017-03-22T09:48:05.691Z,2590
2017-03-22T09:49:06.952Z,2540
2017-03-22T09:50:08.198Z,2345
2017-03-22T09:51:09.451Z,2535
2017-03-22T09:52:10.700Z,2650
2017-03-22T09:53:11.979Z,2620
2017-03-22T09:54:13.231Z,2495
2017-03-22T09:55:14.485Z,2455
2017-03-22T09:56:15.785Z,2510
2017-03-22T09:57:16.995Z,2580
2017-03-22T09:58:18.269Z,2690
2017-03-22T09:59:19.561Z,2625
2017-03-22T10:00:20.811Z,2805
2017-03-22T10:01:22.131Z,2900
2017-03-22T10:02:23.372Z,2910
2017-03-22T10:03:24.654Z,3035
2017-03-22T10:04:25.930Z,2960
2017-03-22T10:05:27.266Z,2900
2017-03-22T10:06:28.532Z,2815
2017-03-22T10:07:29.782Z,2620
2017-03-22T10:08:31.052Z,2440
2017-03-22T10:09:32.286Z,2485
2017-03-22T10:10:33.657Z,2725
2017-03-22T10:11:34.874Z,2980
2017-03-22T10:12:36.133Z,3115
2017-03-22T10:13:37.391Z,3030
2017-03-22T10:14:38.667Z,3230
2017-03-22T10:15:39.918Z,3210
2017-03-22T10:16:41.263Z,3195
2017-03-22T10:17:42.520Z,3145
2017-03-22T10:18:43.768Z,2990
2017-03-22T10:19:45.028Z,3005
2017-03-22T10:20:46.277Z,3175
2017-03-22T10:21:47.536Z,3200
2017-03-22T10:22:48.801Z,3210
2017-03-22T10:23:50.089Z,3240
2017-03-22T10:24:51.361Z,3170
2017-03-22T10:25:52.589Z,3040
2017-03-22T10:26:53.862Z,3025
2017-03-22T10:27:55.109Z,3190
2017-03-22T10:28:56.426Z,3180
2017-03-22T10:29:57.685Z,2895
2017-03-22T10:30:58.934Z,2535
2017-03-22T10:32:00.216Z,2445
2017-03-22T10:33:01.472Z,2375
2017-03-22T10:34:02.708Z,2300
2017-03-22T10:35:03.956Z,2245
2017-03-22T10:36:05.214Z,2300
2017-03-22T10:37:06.473Z,2350
2017-03-22T10:38:07.735Z,2230
2017-03-22T10:39:08.980Z,2075
2017-03-22T10:40:10.237Z,1940
2017-03-22T10:41:11.598Z,1980
2017-03-22T10:42:12.853Z,1930
2017-03-22T10:43:14.138Z,2040
2017-03-22T10:44:15.387Z,2095
2017-03-22T10:45:16.652Z,2235
2017-03-22T10:46:17.962Z,2130
2017-03-22T10:47:19.274Z,1685
2017-03-22T10:48:20.594Z,680
2017-03-22T10:49:21.841Z,320
2017-03-22T10:50:23.104Z,300
2017-03-22T10:51:24.393Z,295
2017-03-22T10:52:25.730Z,290
2017-03-22T10:53:26.946Z,290
2017-03-22T10:54:28.211Z,290
2017-03-22T10:55:29.560Z,285
2017-03-22T10:56:30.850Z,280
2017-03-22T10:57:32.090Z,280
2017-03-22T10:58:33.448Z,280
2017-03-22T10:59:34.686Z,275
2017-03-22T11:00:35.983Z,275
2017-03-22T11:01:37.233Z,270
2017-03-22T11:02:38.520Z,270
2017-03-22T11:03:39.742Z,270
2017-03-22T11:04:41.009Z,265
2017-03-22T11:05:42.257Z,270
2017-03-22T11:06:43.588Z,265
2017-03-22T11:07:44.836Z,265
2017-03-22T11:08:46.115Z,260
2017-03-22T11:09:47.373Z,260
2017-03-22T11:10:48.630Z,265
2017-03-22T11:11:49.844Z,265
2017-03-22T11:12:51.087Z,265
2017-03-22T11:13:52.326Z,270
2017-03-22T11:14:53.594Z,270
2017-03-22T11:15:54.822Z,275
2017-03-22T11:16:56.062Z,280
2017-03-22T11:17:57.322Z,280
2017-03-22T11:18:58.590Z,280
2017-03-22T11:19:59.884Z,285
2017-03-22T11:21:01.134Z,290
2017-03-22T11:22:02.335Z,295
2017-03-22T11:23:03.574Z,295
2017-03-22T11:24:04.817Z,300
2017-03-22T11:25:06.055Z,305
2017-03-22T11:26:07.346Z,310
2017-03-22T11:27:08.624Z,315
2017-03-22T11:28:09.883Z,325
2017-03-22T11:29:11.117Z,335
2017-03-22T11:30:12.377Z,350
2017-03-22T11:31:13.676Z,355
2017-03-22T11:32:14.928Z,365
2017-03-22T11:33:16.156Z,375
2017-03-22T11:34:17.396Z,385
2017-03-22T11:35:18.635Z,390
2017-03-22T11:36:19.884Z,400
2017-03-22T11:37:21.134Z,415
2017-03-22T11:38:22.442Z,430
2017-03-22T11:39:23.703Z,445
2017-03-22T11:40:24.944Z,455
2017-03-22T11:41:26.204Z,465
2017-03-22T11:42:27.438Z,470
2017-03-22T11:43:28.699Z,480
2017-03-22T11:44:29.946Z,475
2017-03-22T11:45:31.233Z,480
2017-03-22T11:46:32.491Z,485
2017-03-22T11:47:33.731Z,485
2017-03-22T11:48:35.014Z,495
2017-03-22T11:49:36.257Z,505
2017-03-22T11:50:37.544Z,515
2017-03-22T11:51:38.809Z,525
2017-03-22T11:52:40.042Z,540
2017-03-22T11:53:41.340Z,555
2017-03-22T11:54:42.568Z,560
2017-03-22T11:55:43.856Z,560
2017-03-22T11:56:45.107Z,545
2017-03-22T11:57:46.482Z,540
2017-03-22T11:58:47.840Z,545
2017-03-22T11:59:49.075Z,540
2017-03-22T12:00:50.311Z,535
2017-03-22T12:01:51.569Z,530
2017-03-22T12:02:52.800Z,530
2017-03-22T12:03:54.062Z,530
2017-03-22T12:04:55.343Z,535
2017-03-22T12:05:56.600Z,525
2017-03-22T12:06:57.861Z,515
2017-03-22T12:07:59.090Z,510
2017-03-22T12:09:00.347Z,505
2017-03-22T12:10:01.603Z,505
2017-03-22T12:11:02.844Z,505
2017-03-22T12:12:04.104Z,505
2017-03-22T12:13:05.331Z,500
2017-03-22T12:14:06.572Z,490
2017-03-22T12:15:07.866Z,485
2017-03-22T12:16:09.171Z,485
2017-03-22T12:17:10.417Z,485
2017-03-22T12:18:11.710Z,480
2017-03-22T12:19:12.963Z,480
2017-03-22T12:20:14.289Z,475
2017-03-22T12:21:15.613Z,470
2017-03-22T12:22:16.755Z,470
2017-03-22T12:23:18.003Z,470
2017-03-22T12:24:19.246Z,480
2017-03-22T12:25:20.533Z,495
2017-03-22T12:26:21.808Z,505
2017-03-22T12:27:23.095Z,530
2017-03-22T12:28:24.353Z,540
2017-03-22T12:29:25.599Z,545
2017-03-22T12:30:26.890Z,550
2017-03-22T12:31:28.138Z,550
2017-03-22T12:32:29.376Z,560
2017-03-22T12:33:30.621Z,570
2017-03-22T12:34:31.863Z,575
2017-03-22T12:35:33.160Z,580
2017-03-22T12:36:34.405Z,600
2017-03-22T12:37:35.646Z,615
2017-03-22T12:38:36.896Z,635
2017-03-22T12:39:38.143Z,645
2017-03-22T12:40:39.398Z,655
2017-03-22T12:41:40.765Z,660
2017-03-22T12:42:41.996Z,660
2017-03-22T12:43:43.239Z,650
2017-03-22T12:44:44.474Z,625
2017-03-22T12:45:45.799Z,600
2017-03-22T12:46:47.044Z,580
2017-03-22T12:47:48.528Z,550
2017-03-22T12:48:49.769Z,535
2017-03-22T12:49:51.030Z,520
2017-03-22T12:50:52.281Z,515
2017-03-22T12:51:53.581Z,495
2017-03-22T12:52:54.812Z,495
2017-03-22T12:53:56.120Z,515
2017-03-22T12:54:57.433Z,520
2017-03-22T12:55:58.672Z,495
2017-03-22T12:56:59.946Z,480
2017-03-22T12:58:01.217Z,470
2017-03-22T12:59:02.439Z,470
2017-03-22T13:00:03.696Z,475
2017-03-22T13:01:04.965Z,485
2017-03-22T13:02:06.203Z,485
2017-03-22T13:03:07.462Z,500
2017-03-22T13:04:08.703Z,520
2017-03-22T13:05:10.001Z,525
2017-03-22T13:06:11.271Z,530
2017-03-22T13:07:13.311Z,530
2017-03-22T13:08:14.561Z,525
2017-03-22T13:09:15.815Z,520
2017-03-22T13:10:17.180Z,515
2017-03-22T13:11:18.448Z,510
2017-03-22T13:12:19.692Z,510
2017-03-22T13:13:20.947Z,510
2017-03-22T13:14:22.224Z,510
2017-03-22T13:15:23.465Z,510
2017-03-22T13:16:24.702Z,515
2017-03-22T13:17:25.961Z,515
2017-03-22T13:18:27.227Z,515
2017-03-22T13:19:28.463Z,510
2017-03-22T13:20:29.803Z,505
2017-03-22T13:21:31.014Z,495
2017-03-22T13:22:32.246Z,490
2017-03-22T13:23:33.476Z,480
2017-03-22T13:24:34.716Z,470
2017-03-22T13:25:35.952Z,465
2017-03-22T13:26:37.263Z,460
2017-03-22T13:27:38.489Z,460
2017-03-22T13:28:39.819Z,470
2017-03-22T13:29:41.041Z,480
2017-03-22T13:30:42.295Z,490
2017-03-22T13:31:43.562Z,500
2017-03-22T13:32:44.782Z,510
2017-03-22T13:33:46.027Z,515
2017-03-22T13:34:47.295Z,525
2017-03-22T13:35:48.517Z,520
2017-03-22T13:36:49.795Z,515
2017-03-22T13:37:51.050Z,515
2017-03-22T13:38:52.306Z,530
2017-03-22T13:39:53.540Z,530
2017-03-22T13:40:54.781Z,530
2017-03-22T13:41:56.081Z,525
2017-03-22T13:42:57.349Z,520
2017-03-22T13:43:58.597Z,520
2017-03-22T13:44:59.861Z,510
2017-03-22T13:46:01.098Z,495
2017-03-22T13:47:02.346Z,490
2017-03-22T13:48:03.596Z,490
2017-03-22T13:49:04.857Z,475
2017-03-22T13:50:06.161Z,470
2017-03-22T13:51:07.407Z,470
2017-03-22T13:52:08.652Z,455
2017-03-22T13:53:09.963Z,430
2017-03-22T13:54:11.210Z,425
2017-03-22T13:55:12.524Z,425
2017-03-22T13:56:13.853Z,425
2017-03-22T13:57:15.098Z,420
2017-03-22T13:58:16.357Z,405
2017-03-22T13:59:17.620Z,405
2017-03-22T14:00:18.852Z,400
2017-03-22T14:01:20.112Z,420
2017-03-22T14:02:21.383Z,445
2017-03-22T14:03:22.698Z,455
2017-03-22T14:04:23.937Z,465
2017-03-22T14:05:25.174Z,455
2017-03-22T14:06:26.413Z,450
2017-03-22T14:07:27.643Z,445
2017-03-22T14:08:29.023Z,435
2017-03-22T14:09:30.258Z,425
2017-03-22T14:10:31.506Z,415
2017-03-22T14:11:32.754Z,405
2017-03-22T14:12:33.997Z,400
2017-03-22T14:13:35.256Z,385
2017-03-22T14:14:36.505Z,380
2017-03-22T14:15:37.791Z,370
2017-03-22T14:16:39.031Z,360
2017-03-22T14:17:40.274Z,350
2017-03-22T14:18:41.542Z,345
2017-03-22T14:19:42.780Z,340
2017-03-22T14:20:44.031Z,335
2017-03-22T14:21:45.269Z,330
2017-03-22T14:22:46.567Z,325